Time;durP1;ratioP1;P1;durP2;ratioP2;P2;SDS_P1;SDS_P2;PMS_P1;PMS_P2;Temp;Humidity;BMP_temperature;BMP_pressure;BME280_temperature;BME280_humidity;BME280_pressure;Samples;Min_cycle;Max_cycle;Signal;HPM_P1;HPM_P2
2021/03/20 00:00:18;;;;;;;5.93;2.70;;;3.80;99.90;;;;;;5013561;28;20173;-67
2021/03/20 00:02:44;;;;;;;4.23;2.50;;;3.70;99.90;;;;;;5012475;28;20499;-69
2021/03/20 00:05:11;;;;;;;4.13;2.97;;;3.50;99.90;;;;;;5013563;28;20513;-70
2021/03/20 00:07:37;;;;;;;3.50;2.93;;;3.50;99.90;;;;;;5012394;28;20313;-68
2021/03/20 00:10:06;;;;;;;5.00;3.17;;;3.50;99.90;;;;;;5013637;28;20474;-69
2021/03/20 00:12:31;;;;;;;5.10;3.80;;;3.60;99.90;;;;;;5013349;28;20786;-68
2021/03/20 00:14:57;;;;;;;5.27;3.03;;;3.50;99.90;;;;;;5013837;28;20510;-69
2021/03/20 00:17:23;;;;;;;4.03;3.00;;;3.50;99.90;;;;;;5013358;28;20176;-67
2021/03/20 00:19:48;;;;;;;5.27;3.20;;;3.50;99.90;;;;;;5013452;28;20267;-69
2021/03/20 00:22:14;;;;;;;4.40;2.70;;;3.40;99.90;;;;;;5013210;28;20199;-69
2021/03/20 00:24:39;;;;;;;4.70;3.10;;;3.30;99.90;;;;;;5014546;28;20220;-68
2021/03/20 00:27:05;;;;;;;5.87;3.37;;;3.30;99.90;;;;;;5013334;28;20177;-68
2021/03/20 00:29:31;;;;;;;5.33;3.30;;;3.30;99.90;;;;;;5013272;28;20239;-70
2021/03/20 00:31:56;;;;;;;4.67;3.03;;;3.30;99.90;;;;;;5013003;28;20196;-67
2021/03/20 00:34:22;;;;;;;5.97;3.13;;;3.20;99.90;;;;;;5013219;28;20698;-70
2021/03/20 00:36:47;;;;;;;6.23;3.60;;;3.30;99.90;;;;;;5013032;28;20211;-69
2021/03/20 00:39:13;;;;;;;5.33;3.03;;;3.30;99.90;;;;;;5013003;28;20180;-68
2021/03/20 00:41:38;;;;;;;6.17;3.23;;;3.30;99.90;;;;;;5012806;28;20600;-68
2021/03/20 00:44:05;;;;;;;3.67;3.20;;;3.20;99.90;;;;;;5013089;28;20227;-67
2021/03/20 00:46:30;;;;;;;8.67;3.17;;;3.10;99.90;;;;;;5012957;28;20184;-68
2021/03/20 00:48:56;;;;;;;4.50;3.67;;;2.80;99.90;;;;;;5012936;28;20939;-67
2021/03/20 00:51:22;;;;;;;6.17;3.37;;;2.70;99.90;;;;;;5012887;28;20177;-68
2021/03/20 00:53:47;;;;;;;4.23;2.90;;;2.50;99.90;;;;;;5012791;28;21738;-67
2021/03/20 00:56:13;;;;;;;5.23;3.50;;;2.40;99.90;;;;;;5012346;28;20184;-68
2021/03/20 00:58:43;;;;;;;5.47;3.60;;;2.20;99.90;;;;;;5012743;28;20271;-68
2021/03/20 01:01:12;;;;;;;3.63;2.80;;;2.00;99.90;;;;;;5012677;28;20184;-69
2021/03/20 01:03:39;;;;;;;4.23;2.97;;;2.00;99.90;;;;;;5012588;28;20415;-68
2021/03/20 01:06:11;;;;;;;6.33;3.60;;;1.90;99.90;;;;;;5012682;28;20415;-68
2021/03/20 01:08:36;;;;;;;4.30;3.13;;;1.90;99.90;;;;;;5012556;28;20924;-68
2021/03/20 01:11:03;;;;;;;5.10;3.00;;;1.70;99.90;;;;;;5012315;28;20455;-68
2021/03/20 01:13:29;;;;;;;5.87;3.47;;;1.70;99.90;;;;;;4994685;28;20298;-69
2021/03/20 01:15:55;;;;;;;5.10;3.63;;;1.70;99.90;;;;;;5012222;28;20784;-67
2021/03/20 01:18:21;;;;;;;5.20;3.23;;;1.90;99.90;;;;;;5012546;28;20416;-68
2021/03/20 01:20:47;;;;;;;5.40;3.40;;;2.00;99.90;;;;;;5012187;28;20176;-69
2021/03/20 01:23:13;;;;;;;7.83;3.43;;;2.00;99.90;;;;;;5011709;28;20307;-68
2021/03/20 01:25:39;;;;;;;4.93;3.47;;;2.00;99.90;;;;;;5013185;28;20224;-68
2021/03/20 01:28:05;;;;;;;4.57;3.50;;;2.10;99.90;;;;;;5012120;28;20415;-69
2021/03/20 01:30:34;;;;;;;6.10;3.73;;;1.90;99.90;;;;;;4994490;28;20291;-69
2021/03/20 01:33:00;;;;;;;5.83;4.20;;;1.90;99.90;;;;;;5011516;28;20200;-68
2021/03/20 01:35:26;;;;;;;6.27;4.10;;;1.70;99.90;;;;;;5011924;28;20773;-68
2021/03/20 01:37:52;;;;;;;4.93;3.73;;;1.70;99.90;;;;;;5011939;28;20852;-68
2021/03/20 01:40:25;;;;;;;10.77;5.63;;;1.70;99.90;;;;;;5012034;28;20423;-68
2021/03/20 01:42:51;;;;;;;6.10;3.50;;;1.60;99.90;;;;;;5010743;28;20511;-69
2021/03/20 01:45:21;;;;;;;5.20;3.50;;;1.60;99.90;;;;;;5011844;28;20451;-69
2021/03/20 01:48:09;;;;;;;7.07;3.70;;;1.50;99.90;;;;;;5011870;28;20537;-67
2021/03/20 01:51:03;;;;;;;5.10;4.27;;;1.50;99.90;;;;;;5010718;28;20505;-69
2021/03/20 01:53:44;;;;;;;5.90;4.50;;;1.60;99.90;;;;;;5008541;28;20969;-68
2021/03/20 01:56:19;;;;;;;6.00;4.00;;;1.50;99.90;;;;;;5011726;28;20446;-69
2021/03/20 01:58:47;;;;;;;6.97;4.13;;;1.50;99.90;;;;;;5011580;28;20426;-68
2021/03/20 02:01:14;;;;;;;8.77;4.90;;;1.50;99.90;;;;;;5011663;28;20502;-68
2021/03/20 02:03:40;;;;;;;15.20;5.70;;;1.60;99.90;;;;;;5011593;28;20415;-69
2021/03/20 02:06:07;;;;;;;10.67;5.30;;;1.60;99.90;;;;;;5011730;28;20416;-69
2021/03/20 02:08:35;;;;;;;13.10;6.37;;;1.80;99.90;;;;;;4993746;28;20267;-68
2021/03/20 02:11:12;;;;;;;8.23;4.87;;;1.90;99.90;;;;;;5011577;28;20424;-69
2021/03/20 02:13:41;;;;;;;6.03;4.50;;;2.10;99.90;;;;;;5011628;28;20463;-68
2021/03/20 02:16:18;;;;;;;7.03;3.97;;;2.20;99.90;;;;;;5011648;28;20458;-67
2021/03/20 02:19:01;;;;;;;5.03;3.73;;;2.40;99.90;;;;;;5011059;28;20411;-68
2021/03/20 02:21:34;;;;;;;7.23;4.57;;;2.40;99.90;;;;;;5011341;28;20414;-68
2021/03/20 02:24:32;;;;;;;7.47;4.13;;;2.50;99.90;;;;;;5011314;28;20427;-68
2021/03/20 02:27:30;;;;;;;5.57;4.00;;;2.60;99.90;;;;;;4974244;28;20463;-70
2021/03/20 02:30:22;;;;;;;4.93;3.40;;;2.60;99.90;;;;;;5011073;28;20443;-67
2021/03/20 02:33:13;;;;;;;5.43;3.70;;;2.70;99.90;;;;;;5019111;28;20466;-68
2021/03/20 02:35:50;;;;;;;5.10;3.60;;;2.80;99.90;;;;;;5030214;28;20464;-68
2021/03/20 02:38:30;;;;;;;6.40;3.90;;;2.80;99.90;;;;;;5032462;28;20418;-68
2021/03/20 02:41:19;;;;;;;4.13;3.73;;;2.90;99.90;;;;;;5034353;28;20733;-68
2021/03/20 02:43:54;;;;;;;5.50;3.93;;;3.00;99.90;;;;;;5008483;28;20948;-67
2021/03/20 02:46:47;;;;;;;4.97;4.17;;;3.00;99.90;;;;;;5015313;28;20465;-69
2021/03/20 02:49:35;;;;;;;4.70;3.70;;;2.90;99.90;;;;;;5031096;28;20406;-68
2021/03/20 02:52:10;;;;;;;4.80;3.90;;;3.00;99.90;;;;;;5015002;28;20455;-69
2021/03/20 02:54:47;;;;;;;4.03;3.40;;;3.10;99.90;;;;;;5014963;28;20418;-68
2021/03/20 02:57:18;;;;;;;4.70;3.73;;;3.20;99.90;;;;;;5015006;28;20445;-69
2021/03/20 03:00:00;;;;;;;4.40;3.50;;;3.20;99.90;;;;;;5034450;28;20398;-68
2021/03/20 03:02:29;;;;;;;5.17;3.20;;;3.10;99.90;;;;;;5021967;28;20498;-69
2021/03/20 03:05:00;;;;;;;4.47;3.30;;;3.20;99.90;;;;;;5033051;28;20406;-67
2021/03/20 03:07:32;;;;;;;4.37;3.97;;;3.10;99.90;;;;;;5030513;28;20533;-68
2021/03/20 03:10:14;;;;;;;4.60;3.67;;;3.10;99.90;;;;;;5026454;28;20816;-69
2021/03/20 03:12:55;;;;;;;4.53;3.70;;;3.10;99.90;;;;;;5029052;28;20458;-68
2021/03/20 03:15:26;;;;;;;4.77;3.00;;;3.10;99.90;;;;;;5023948;28;20494;-68
2021/03/20 03:18:01;;;;;;;4.13;3.53;;;3.10;99.90;;;;;;5020294;28;20410;-69
2021/03/20 03:20:32;;;;;;;4.80;3.70;;;3.10;99.90;;;;;;5018476;28;20496;-68
2021/03/20 03:23:06;;;;;;;4.93;3.30;;;3.00;99.90;;;;;;5019281;28;20747;-69
2021/03/20 03:25:35;;;;;;;4.30;3.33;;;3.00;99.90;;;;;;5020700;28;20682;-70
2021/03/20 03:28:05;;;;;;;4.07;3.30;;;2.90;99.90;;;;;;5021252;28;20419;-67
2021/03/20 03:30:30;;;;;;;4.43;3.40;;;3.00;99.90;;;;;;5033465;28;20425;-69
2021/03/20 03:33:16;;;;;;;4.80;3.73;;;3.00;99.90;;;;;;5021080;28;20879;-68
2021/03/20 03:35:46;;;;;;;7.03;3.60;;;3.00;99.90;;;;;;5015820;28;20192;-68
2021/03/20 03:38:41;;;;;;;7.00;4.10;;;3.00;99.90;;;;;;5034028;28;20418;-67
2021/03/20 03:41:14;;;;;;;4.93;3.60;;;3.00;99.90;;;;;;5025648;28;20449;-68
2021/03/20 03:43:41;;;;;;;5.33;4.17;;;2.90;99.90;;;;;;5034275;28;20956;-68
2021/03/20 03:46:08;;;;;;;6.10;4.20;;;2.90;99.90;;;;;;5027162;28;20452;-67
2021/03/20 03:48:34;;;;;;;7.47;4.00;;;3.00;99.90;;;;;;5033189;28;20415;-68
2021/03/20 03:51:10;;;;;;;5.20;4.10;;;2.80;99.90;;;;;;5022740;28;20418;-67
2021/03/20 03:53:37;;;;;;;5.80;4.43;;;2.80;99.90;;;;;;5033557;28;20963;-67
2021/03/20 03:56:31;;;;;;;6.37;4.23;;;2.80;99.90;;;;;;5033790;28;20725;-66
2021/03/20 03:59:06;;;;;;;6.83;4.17;;;2.70;99.90;;;;;;5008077;28;20482;-67
2021/03/20 04:01:50;;;;;;;5.90;4.27;;;2.70;99.90;;;;;;5022628;28;20468;-68
2021/03/20 04:04:22;;;;;;;4.90;4.40;;;2.60;99.90;;;;;;5013821;28;20419;-66
2021/03/20 04:07:25;;;;;;;6.00;4.30;;;2.60;99.90;;;;;;5030991;28;20494;-68
2021/03/20 04:10:08;;;;;;;4.87;4.33;;;2.60;99.90;;;;;;5019742;28;20446;-66
2021/03/20 04:12:55;;;;;;;6.37;4.73;;;2.60;99.90;;;;;;5013776;28;20543;-66
2021/03/20 04:15:30;;;;;;;5.97;4.23;;;2.60;99.90;;;;;;5019104;28;20472;-67
2021/03/20 04:18:28;;;;;;;5.40;4.30;;;2.50;99.90;;;;;;5028540;28;20411;-67
2021/03/20 04:21:04;;;;;;;4.40;4.00;;;2.40;99.90;;;;;;5014922;28;20473;-67
2021/03/20 04:23:34;;;;;;;7.27;4.60;;;2.40;99.90;;;;;;5024826;28;20895;-67
2021/03/20 04:26:12;;;;;;;7.07;4.80;;;2.40;99.90;;;;;;5015501;28;20447;-67
2021/03/20 04:28:40;;;;;;;7.70;4.37;;;2.30;99.90;;;;;;5013230;28;20441;-68
2021/03/20 04:31:15;;;;;;;5.27;4.57;;;2.20;99.90;;;;;;5013432;28;20411;-67
2021/03/20 04:34:02;;;;;;;6.27;4.97;;;2.10;99.90;;;;;;5012926;28;20462;-67
2021/03/20 04:36:35;;;;;;;8.93;5.80;;;2.00;99.90;;;;;;5013031;28;20430;-67
2021/03/20 04:39:06;;;;;;;8.30;6.73;;;1.90;99.90;;;;;;5013203;28;20403;-67
2021/03/20 04:41:32;;;;;;;10.37;6.53;;;1.90;99.90;;;;;;5013065;28;20897;-68
2021/03/20 04:43:58;;;;;;;11.27;7.57;;;2.00;99.90;;;;;;5013125;28;20804;-67
2021/03/20 04:46:28;;;;;;;9.57;6.80;;;2.00;99.90;;;;;;5012887;28;20423;-68
2021/03/20 04:49:20;;;;;;;9.33;5.57;;;2.00;99.90;;;;;;5012942;28;20291;-70
2021/03/20 04:51:57;;;;;;;6.40;5.17;;;2.00;99.90;;;;;;5012301;28;20426;-67
2021/03/20 04:54:25;;;;;;;6.70;5.07;;;2.00;99.90;;;;;;5012882;28;20820;-69
2021/03/20 04:56:58;;;;;;;7.60;5.53;;;1.90;99.90;;;;;;5012730;28;20415;-68
2021/03/20 04:59:46;;;;;;;9.53;5.97;;;1.90;99.90;;;;;;5011841;28;20458;-67
2021/03/20 05:02:35;;;;;;;9.13;6.13;;;1.90;99.90;;;;;;5012963;28;20489;-71
2021/03/20 05:05:20;;;;;;;7.07;5.90;;;1.90;99.90;;;;;;5011806;28;20420;-70
2021/03/20 05:07:46;;;;;;;8.10;5.60;;;1.90;99.90;;;;;;5012070;28;20470;-69
2021/03/20 05:10:41;;;;;;;7.50;5.53;;;1.90;99.90;;;;;;5012610;28;20415;-66
2021/03/20 05:13:18;;;;;;;8.00;5.93;;;1.90;99.90;;;;;;5004134;28;21067;-69
2021/03/20 05:15:44;;;;;;;10.00;6.20;;;2.00;99.90;;;;;;5012538;28;20419;-69
2021/03/20 05:18:10;;;;;;;8.70;5.83;;;2.00;99.90;;;;;;5011190;28;20491;-68
2021/03/20 05:20:36;;;;;;;7.57;5.60;;;2.00;99.90;;;;;;5012332;28;20446;-70
2021/03/20 05:23:02;;;;;;;9.40;6.67;;;2.00;99.90;;;;;;5011968;28;20181;-67
2021/03/20 05:25:27;;;;;;;8.93;6.07;;;2.00;99.90;;;;;;5014456;28;20208;-67
2021/03/20 05:27:53;;;;;;;8.97;6.43;;;2.00;99.90;;;;;;5014929;28;20433;-65
2021/03/20 05:30:20;;;;;;;8.67;6.43;;;2.00;99.90;;;;;;5028542;28;20181;-69
2021/03/20 05:32:46;;;;;;;11.17;6.50;;;1.90;99.90;;;;;;5013718;28;20451;-69
2021/03/20 05:35:24;;;;;;;8.37;6.17;;;1.90;99.90;;;;;;5012054;28;20415;-68
2021/03/20 05:37:50;;;;;;;8.07;6.10;;;1.90;99.90;;;;;;5006700;28;20259;-67
2021/03/20 05:40:20;;;;;;;8.90;6.37;;;1.90;99.90;;;;;;5031946;28;20414;-69
2021/03/20 05:43:04;;;;;;;9.30;6.77;;;1.80;99.90;;;;;;5031924;28;20468;-69
2021/03/20 05:45:58;;;;;;;7.50;6.43;;;1.90;99.90;;;;;;5022928;28;20413;-70
2021/03/20 05:48:42;;;;;;;7.30;5.83;;;1.90;99.90;;;;;;5015602;28;20417;-67
2021/03/20 05:51:26;;;;;;;10.43;6.40;;;2.00;99.90;;;;;;5013402;28;20419;-70
2021/03/20 05:54:13;;;;;;;10.17;6.33;;;1.90;99.90;;;;;;5031565;28;20512;-69
2021/03/20 05:56:59;;;;;;;8.13;6.00;;;2.10;99.90;;;;;;5017243;28;20916;-70
2021/03/20 05:59:36;;;;;;;7.77;5.87;;;2.10;99.90;;;;;;5011630;28;20407;-66
2021/03/20 06:02:20;;;;;;;7.30;5.80;;;2.30;99.90;;;;;;5012907;28;20427;-68
2021/03/20 06:04:48;;;;;;;7.03;6.17;;;2.40;99.90;;;;;;5011657;28;20419;-69
2021/03/20 06:07:49;;;;;;;8.23;6.30;;;2.50;99.90;;;;;;5011582;28;20769;-69
2021/03/20 06:10:42;;;;;;;7.80;5.33;;;2.50;99.90;;;;;;4958539;28;20489;-69
2021/03/20 06:13:31;;;;;;;6.50;5.33;;;2.50;99.90;;;;;;5014151;28;20560;-69
2021/03/20 06:16:15;;;;;;;6.07;5.40;;;2.40;99.90;;;;;;4984704;28;20427;-69
2021/03/20 06:18:55;;;;;;;7.60;5.40;;;2.50;99.90;;;;;;5011762;28;20435;-67
2021/03/20 06:21:33;;;;;;;9.60;5.63;;;2.50;99.90;;;;;;5017058;28;20784;-67
2021/03/20 06:24:33;;;;;;;7.27;5.70;;;2.50;99.90;;;;;;5011511;28;20415;-68
2021/03/20 06:27:01;;;;;;;7.53;5.37;;;2.60;99.90;;;;;;4995190;28;20459;-67
2021/03/20 06:29:37;;;;;;;7.17;5.13;;;2.60;99.90;;;;;;5003885;28;20716;-69
2021/03/20 06:32:20;;;;;;;6.63;5.00;;;2.60;99.90;;;;;;5004406;28;20447;-68
2021/03/20 06:35:07;;;;;;;6.60;4.80;;;2.50;99.90;;;;;;5009640;28;20987;-69
2021/03/20 06:37:37;;;;;;;7.87;5.10;;;2.60;99.90;;;;;;5002290;28;20933;-69
2021/03/20 06:40:29;;;;;;;8.00;5.20;;;2.60;99.90;;;;;;5002131;28;20442;-68
2021/03/20 06:42:56;;;;;;;6.47;5.10;;;2.50;99.90;;;;;;5002257;28;20416;-69
2021/03/20 06:45:31;;;;;;;7.43;5.37;;;2.60;99.90;;;;;;4990575;28;20914;-68
2021/03/20 06:48:00;;;;;;;6.83;5.40;;;2.70;99.90;;;;;;4991469;28;20430;-69
2021/03/20 06:50:31;;;;;;;7.17;5.70;;;2.80;99.90;;;;;;5002510;28;20531;-68
2021/03/20 06:53:00;;;;;;;7.53;5.73;;;2.90;99.90;;;;;;5009866;28;20559;-69
2021/03/20 06:55:32;;;;;;;7.00;5.60;;;2.90;99.90;;;;;;4992847;28;20444;-69
2021/03/20 06:58:04;;;;;;;11.87;5.57;;;2.90;99.90;;;;;;4991456;28;20521;-68
2021/03/20 07:00:35;;;;;;;6.27;5.40;;;2.90;99.90;;;;;;4991380;28;20416;-68
2021/03/20 07:03:37;;;;;;;7.77;4.93;;;2.80;99.90;;;;;;5002336;28;20420;-68
2021/03/20 07:06:24;;;;;;;9.23;5.17;;;2.90;99.90;;;;;;4996963;28;20499;-69
2021/03/20 07:08:54;;;;;;;6.67;4.90;;;2.80;99.90;;;;;;4999429;28;20419;-68
2021/03/20 07:11:30;;;;;;;6.40;4.90;;;2.90;99.90;;;;;;4991144;28;20466;-69
2021/03/20 07:13:59;;;;;;;7.13;4.93;;;3.00;99.90;;;;;;4989744;28;20455;-68
2021/03/20 07:16:28;;;;;;;7.33;4.93;;;3.10;99.90;;;;;;5003752;28;20906;-69
2021/03/20 07:19:11;;;;;;;8.07;5.30;;;3.10;99.90;;;;;;4996287;28;20416;-69
2021/03/20 07:21:39;;;;;;;7.83;5.10;;;3.10;99.90;;;;;;5007861;28;20420;-69
2021/03/20 07:24:21;;;;;;;7.43;4.13;;;3.00;99.90;;;;;;4997472;28;20482;-69
2021/03/20 07:27:12;;;;;;;9.83;4.97;;;3.10;99.90;;;;;;5013024;28;20860;-70
2021/03/20 07:29:55;;;;;;;5.90;4.80;;;3.20;99.90;;;;;;5014368;28;20990;-69
2021/03/20 07:32:33;;;;;;;6.20;4.63;;;3.20;99.90;;;;;;5014075;28;20455;-69
2021/03/20 07:35:14;;;;;;;8.03;5.20;;;3.40;99.90;;;;;;5014327;28;20987;-69
2021/03/20 07:37:40;;;;;;;6.60;5.23;;;3.40;99.90;;;;;;5013970;28;20498;-67
2021/03/20 07:40:25;;;;;;;9.50;4.83;;;3.40;99.90;;;;;;5014140;28;20503;-69
2021/03/20 07:43:08;;;;;;;11.40;5.53;;;3.40;99.90;;;;;;5013353;28;20234;-69
2021/03/20 07:45:34;;;;;;;9.13;4.90;;;3.50;99.90;;;;;;5013956;28;20808;-69
2021/03/20 07:48:02;;;;;;;7.50;5.13;;;3.70;99.90;;;;;;5013868;28;20420;-68
2021/03/20 07:50:45;;;;;;;5.87;4.70;;;3.80;99.90;;;;;;5014018;28;20662;-70
2021/03/20 07:53:17;;;;;;;7.43;5.60;;;3.80;99.90;;;;;;5013738;28;20470;-69
2021/03/20 07:55:56;;;;;;;6.83;4.93;;;3.90;99.90;;;;;;5013885;28;20411;-68
2021/03/20 07:58:26;;;;;;;7.13;4.60;;;4.00;99.90;;;;;;5013762;28;20533;-69
2021/03/20 08:01:00;;;;;;;6.47;4.10;;;4.20;99.90;;;;;;5012525;28;20403;-69
2021/03/20 08:03:30;;;;;;;6.87;3.97;;;4.40;99.90;;;;;;5013825;28;20756;-69
2021/03/20 08:06:36;;;;;;;5.77;4.50;;;4.40;99.90;;;;;;5013739;28;20423;-69
2021/03/20 08:09:17;;;;;;;5.33;4.20;;;4.50;99.90;;;;;;4999702;28;20432;-69
2021/03/20 08:12:04;;;;;;;6.93;4.33;;;4.50;99.90;;;;;;5012477;28;20407;-67
2021/03/20 08:14:36;;;;;;;5.17;3.70;;;4.50;99.90;;;;;;5012767;28;20497;-69
2021/03/20 08:17:02;;;;;;;12.90;5.93;;;4.50;99.90;;;;;;5013389;28;20428;-69
2021/03/20 08:19:31;;;;;;;5.53;4.53;;;4.50;99.90;;;;;;5013461;28;20510;-68
2021/03/20 08:21:59;;;;;;;5.63;4.33;;;4.50;99.90;;;;;;5013447;28;20176;-68
2021/03/20 08:24:53;;;;;;;6.40;4.60;;;4.40;99.90;;;;;;5013434;28;20550;-68
2021/03/20 08:27:48;;;;;;;6.07;4.43;;;4.30;99.90;;;;;;4996723;28;20550;-69
2021/03/20 08:30:24;;;;;;;5.73;4.40;;;4.20;99.90;;;;;;5008980;28;20426;-67
2021/03/20 08:32:58;;;;;;;6.53;4.07;;;4.20;99.90;;;;;;5012831;28;20451;-69
2021/03/20 08:35:35;;;;;;;6.13;3.67;;;4.30;99.90;;;;;;4996134;28;20439;-69
2021/03/20 08:38:00;;;;;;;5.47;4.70;;;4.40;99.90;;;;;;5012952;28;20909;-69
2021/03/20 08:40:41;;;;;;;4.60;3.67;;;4.30;99.90;;;;;;5013043;28;20414;-69
2021/03/20 08:43:25;;;;;;;5.37;4.00;;;4.30;99.90;;;;;;4993712;28;20175;-69
2021/03/20 08:46:13;;;;;;;4.63;3.70;;;4.30;99.90;;;;;;5009231;28;20435;-70
2021/03/20 08:49:05;;;;;;;4.77;3.30;;;4.30;98.70;;;;;;4995018;28;20435;-68
2021/03/20 08:51:54;;;;;;;4.17;2.90;;;4.20;97.80;;;;;;4994714;28;20470;-68
2021/03/20 08:54:43;;;;;;;3.43;2.30;;;4.20;98.00;;;;;;4993209;28;20462;-68
2021/03/20 08:57:12;;;;;;;8.63;2.80;;;4.30;96.20;;;;;;5008821;28;20439;-68
2021/03/20 08:59:51;;;;;;;3.47;2.77;;;4.30;94.20;;;;;;4993168;28;20432;-69
2021/03/20 09:02:23;;;;;;;4.30;3.00;;;4.30;95.80;;;;;;4998609;28;20415;-67
2021/03/20 09:04:52;;;;;;;6.07;3.13;;;4.30;95.00;;;;;;5012208;28;20415;-68
2021/03/20 09:07:22;;;;;;;5.63;3.30;;;4.50;94.30;;;;;;5001958;28;20424;-68
2021/03/20 09:09:53;;;;;;;7.07;3.33;;;4.60;93.20;;;;;;4992973;28;20969;-68
2021/03/20 09:12:28;;;;;;;6.60;3.60;;;4.70;95.10;;;;;;4992847;28;20447;-67
2021/03/20 09:14:54;;;;;;;5.17;3.73;;;4.60;94.00;;;;;;5012352;28;20434;-68
2021/03/20 09:17:40;;;;;;;6.77;4.10;;;4.60;95.00;;;;;;5005298;28;20412;-68
2021/03/20 09:20:36;;;;;;;6.87;4.90;;;4.50;95.30;;;;;;4992642;28;20440;-67
2021/03/20 09:23:02;;;;;;;4.93;3.00;;;4.40;93.70;;;;;;4992791;28;20761;-68
2021/03/20 09:25:42;;;;;;;4.77;3.27;;;4.40;94.20;;;;;;5005014;28;20927;-69
2021/03/20 09:28:16;;;;;;;3.57;3.20;;;4.50;93.30;;;;;;5012140;28;20415;-68
2021/03/20 09:30:44;;;;;;;4.30;2.83;;;4.60;91.80;;;;;;5011323;28;20465;-66
2021/03/20 09:33:19;;;;;;;5.10;3.13;;;4.70;92.90;;;;;;5011970;28;20771;-69
2021/03/20 09:35:51;;;;;;;4.33;3.10;;;4.60;87.20;;;;;;5011442;28;20775;-68
2021/03/20 09:38:37;;;;;;;4.90;2.97;;;4.50;82.70;;;;;;5011790;28;20730;-67
2021/03/20 09:41:28;;;;;;;6.93;3.33;;;4.50;88.90;;;;;;5009846;28;20498;-68
2021/03/20 09:44:00;;;;;;;6.17;3.43;;;4.60;89.20;;;;;;5011448;28;21465;-69
2021/03/20 09:46:36;;;;;;;3.03;2.40;;;4.70;90.10;;;;;;5011008;28;20423;-68
2021/03/20 09:49:07;;;;;;;4.07;2.50;;;4.80;85.30;;;;;;5011173;28;20498;-69
2021/03/20 09:51:59;;;;;;;4.03;2.23;;;5.00;83.30;;;;;;5011903;28;20424;-69
2021/03/20 09:54:43;;;;;;;4.10;1.90;;;5.10;82.30;;;;;;5010820;28;20431;-67
2021/03/20 09:59:34;;;;;;;3.10;2.27;;;4.80;74.70;;;;;;5011822;28;20465;-66
2021/03/20 10:02:09;;;;;;;4.37;2.20;;;4.90;82.10;;;;;;5011624;28;20173;-66
2021/03/20 10:07:21;;;;;;;4.97;1.90;;;4.90;72.40;;;;;;5011755;28;20451;-66
2021/03/20 10:10:05;;;;;;;3.93;2.20;;;5.10;74.90;;;;;;5010555;28;20818;-68
2021/03/20 10:12:46;;;;;;;3.00;1.90;;;5.30;76.10;;;;;;5011446;28;20482;-71
2021/03/20 10:15:15;;;;;;;3.17;1.90;;;5.50;69.70;;;;;;5011245;28;20494;-70
2021/03/20 10:18:02;;;;;;;4.67;2.00;;;5.60;67.70;;;;;;5011520;28;20404;-67
2021/03/20 10:20:54;;;;;;;3.60;2.37;;;5.70;66.70;;;;;;5010993;28;20411;-68
2021/03/20 10:23:28;;;;;;;3.27;2.17;;;5.80;63.40;;;;;;5010730;28;20474;-68
2021/03/20 10:25:56;;;;;;;4.00;1.70;;;5.90;65.40;;;;;;5012478;28;21011;-70
2021/03/20 10:28:30;;;;;;;3.03;2.03;;;6.00;64.60;;;;;;5011234;28;20410;-68
2021/03/20 10:30:59;;;;;;;3.27;1.90;;;6.00;59.20;;;;;;5011333;28;20461;-68
2021/03/20 10:33:32;;;;;;;4.10;2.13;;;6.00;58.70;;;;;;5010816;28;20768;-66
2021/03/20 10:36:28;;;;;;;2.07;1.63;;;6.00;57.00;;;;;;5011427;28;20766;-68
2021/03/20 10:38:54;;;;;;;2.60;1.77;;;5.80;56.30;;;;;;5010300;28;20419;-68
2021/03/20 10:41:22;;;;;;;2.13;1.50;;;5.90;58.30;;;;;;5011444;28;20417;-68
2021/03/20 10:43:55;;;;;;;2.63;1.73;;;6.20;59.70;;;;;;5011117;28;20183;-68
2021/03/20 10:46:26;;;;;;;3.30;1.60;;;6.40;59.80;;;;;;5011081;28;20474;-69
2021/03/20 10:48:55;;;;;;;3.60;1.77;;;6.40;54.90;;;;;;5011031;28;20430;-69
2021/03/20 10:51:22;;;;;;;3.80;2.03;;;6.50;56.50;;;;;;5011190;28;20431;-69
2021/03/20 10:53:52;;;;;;;4.73;2.13;;;6.70;57.20;;;;;;5010536;28;20466;-68
2021/03/20 10:56:32;;;;;;;2.60;1.80;;;6.90;56.80;;;;;;5010455;28;20415;-65
2021/03/20 10:58:59;;;;;;;6.33;1.70;;;6.90;53.50;;;;;;5014533;28;20419;-69
2021/03/20 11:01:37;;;;;;;3.87;1.73;;;6.90;54.40;;;;;;5014381;28;20506;-65
2021/03/20 11:04:04;;;;;;;2.70;2.03;;;7.10;56.30;;;;;;5014509;28;20422;-67
2021/03/20 11:06:31;;;;;;;3.67;1.63;;;7.20;55.70;;;;;;4996765;28;21007;-67
2021/03/20 11:09:13;;;;;;;4.60;2.00;;;7.20;54.80;;;;;;5014417;28;20435;-68
2021/03/20 11:11:42;;;;;;;1.73;1.20;;;7.30;56.60;;;;;;5014159;28;20457;-70
2021/03/20 11:14:12;;;;;;;2.83;1.53;;;7.40;53.70;;;;;;5014258;28;20477;-67
2021/03/20 11:17:03;;;;;;;2.27;1.57;;;7.60;54.20;;;;;;5013955;28;20458;-68
2021/03/20 11:19:33;;;;;;;1.83;1.50;;;7.70;51.40;;;;;;5013911;28;20424;-69
2021/03/20 11:22:02;;;;;;;1.77;1.50;;;7.70;51.40;;;;;;5014009;28;20957;-67
2021/03/20 11:24:28;;;;;;;2.80;1.73;;;7.50;48.40;;;;;;5013705;28;20514;-69
2021/03/20 11:26:56;;;;;;;3.47;1.87;;;7.50;51.80;;;;;;5025131;28;20662;-68
2021/03/20 11:29:28;;;;;;;5.27;2.13;;;7.70;53.60;;;;;;5033755;28;20772;-68
2021/03/20 11:32:17;;;;;;;2.43;1.77;;;7.80;54.70;;;;;;5033510;28;20437;-67
2021/03/20 11:34:43;;;;;;;1.73;1.40;;;7.90;51.20;;;;;;5015781;28;20422;-67
2021/03/20 11:37:21;;;;;;;2.23;1.83;;;8.00;49.00;;;;;;5033571;28;20430;-68
2021/03/20 11:39:53;;;;;;;3.47;1.87;;;8.10;46.80;;;;;;5033411;28;20448;-69
2021/03/20 11:42:24;;;;;;;2.30;1.33;;;8.20;46.90;;;;;;5033261;28;20460;-68
2021/03/20 11:44:50;;;;;;;4.97;1.90;;;8.10;43.60;;;;;;5015583;28;20453;-68
2021/03/20 11:47:30;;;;;;;3.70;1.97;;;8.20;44.10;;;;;;5033212;28;20426;-68
2021/03/20 11:49:58;;;;;;;3.00;1.80;;;8.10;48.30;;;;;;5033402;28;20249;-69
2021/03/20 11:52:28;;;;;;;3.77;3.37;;;7.80;46.60;;;;;;5033054;28;20446;-69
2021/03/20 11:55:05;;;;;;;2.60;2.00;;;7.50;48.40;;;;;;5031442;28;20422;-66
2021/03/20 11:57:37;;;;;;;2.87;1.83;;;7.50;50.70;;;;;;5028034;28;20440;-69
2021/03/20 12:00:29;;;;;;;4.03;2.00;;;8.00;53.10;;;;;;5011889;28;20450;-68
2021/03/20 12:02:56;;;;;;;3.70;2.10;;;8.20;49.00;;;;;;5002660;28;20865;-67
2021/03/20 12:05:36;;;;;;;3.03;2.20;;;8.80;55.00;;;;;;5013134;28;20419;-70
2021/03/20 12:08:11;;;;;;;3.23;2.13;;;8.90;48.00;;;;;;5012513;28;20411;-67
2021/03/20 12:10:37;;;;;;;2.90;2.03;;;8.70;52.40;;;;;;5013121;28;20510;-67
2021/03/20 12:13:02;;;;;;;4.00;2.40;;;9.30;52.90;;;;;;5012853;28;20542;-68
2021/03/20 12:15:33;;;;;;;2.83;1.90;;;9.50;49.80;;;;;;5012918;28;20522;-67
2021/03/20 12:18:09;;;;;;;2.30;2.10;;;10.00;50.80;;;;;;4994968;28;20180;-69
2021/03/20 12:20:42;;;;;;;2.67;2.10;;;10.40;50.00;;;;;;5012837;28;20451;-68
2021/03/20 12:23:18;;;;;;;1.70;1.60;;;10.70;44.50;;;;;;5012534;28;20765;-69
2021/03/20 12:25:50;;;;;;;5.13;1.90;;;10.80;43.60;;;;;;5012644;28;20713;-69
2021/03/20 12:28:24;;;;;;;2.23;1.70;;;10.90;43.30;;;;;;4993138;28;20424;-68
2021/03/20 12:31:13;;;;;;;3.67;1.97;;;11.00;40.40;;;;;;4993047;28;20499;-68
2021/03/20 12:33:48;;;;;;;4.10;2.00;;;11.20;41.70;;;;;;4993162;28;20209;-69
2021/03/20 12:36:36;;;;;;;3.00;1.77;;;11.40;43.10;;;;;;4993497;28;20178;-68
2021/03/20 12:39:08;;;;;;;1.90;1.20;;;11.80;41.90;;;;;;4983790;28;20182;-68
2021/03/20 12:41:35;;;;;;;1.77;1.50;;;11.90;38.90;;;;;;5011449;28;20627;-67
2021/03/20 12:44:10;;;;;;;2.73;1.40;;;12.10;39.90;;;;;;5012654;28;20647;-69
2021/03/20 12:46:38;;;;;;;2.03;1.33;;;12.20;39.00;;;;;;5012132;28;20284;-67
2021/03/20 12:49:04;;;;;;;2.20;1.60;;;12.30;37.70;;;;;;5012232;28;20179;-68
2021/03/20 12:51:30;;;;;;;2.43;1.57;;;12.60;39.60;;;;;;5012073;28;20623;-67
2021/03/20 12:53:55;;;;;;;3.77;1.53;;;12.80;38.30;;;;;;5012099;28;20228;-67
2021/03/20 12:56:21;;;;;;;2.17;1.90;;;12.90;33.60;;;;;;5011915;28;20231;-66
2021/03/20 12:58:47;;;;;;;3.37;1.77;;;12.60;36.50;;;;;;5012154;28;20239;-67
2021/03/20 13:01:13;;;;;;;3.23;1.50;;;12.60;37.50;;;;;;5012126;28;20637;-69
2021/03/20 13:03:39;;;;;;;3.33;1.27;;;12.80;34.00;;;;;;5011910;28;20189;-69
2021/03/20 13:06:06;;;;;;;1.80;1.27;;;12.90;33.90;;;;;;5011901;28;20176;-68
2021/03/20 13:08:34;;;;;;;1.67;1.23;;;12.70;34.60;;;;;;5011560;28;20207;-68
2021/03/20 13:11:00;;;;;;;3.10;1.30;;;12.60;33.20;;;;;;5003936;28;20636;-69
2021/03/20 13:13:25;;;;;;;3.60;1.73;;;12.30;36.50;;;;;;5007287;28;20196;-69
2021/03/20 13:15:51;;;;;;;1.77;1.37;;;12.00;32.00;;;;;;5011859;28;20183;-70
2021/03/20 13:18:17;;;;;;;1.90;1.10;;;11.50;33.20;;;;;;5011566;28;20216;-67
2021/03/20 13:20:43;;;;;;;4.20;1.57;;;11.20;32.70;;;;;;5011233;28;20631;-68
2021/03/20 13:23:09;;;;;;;2.87;1.53;;;11.20;34.20;;;;;;5011735;28;20184;-69
2021/03/20 13:25:38;;;;;;;1.77;1.20;;;11.20;35.00;;;;;;5011768;28;20271;-68
2021/03/20 13:28:06;;;;;;;2.43;1.40;;;11.40;36.30;;;;;;5011438;28;20270;-69
2021/03/20 13:30:37;;;;;;;1.50;1.37;;;11.50;36.10;;;;;;5011526;28;20180;-68
2021/03/20 13:33:04;;;;;;;2.30;0.97;;;11.70;31.10;;;;;;5011596;28;20204;-68
2021/03/20 13:35:39;;;;;;;1.03;0.93;;;11.60;30.20;;;;;;5011146;28;20176;-69
2021/03/20 13:38:05;;;;;;;3.30;1.00;;;11.90;31.30;;;;;;5011335;28;20704;-68